Time;durP1;ratioP1;P1;durP2;ratioP2;P2;SDS_P1;SDS_P2;PMS_P1;PMS_P2;Temp;Humidity;BMP_temperature;BMP_pressure;BME280_temperature;BME280_humidity;BME280_pressure;Samples;Min_cycle;Max_cycle;Signal;HPM_P1;HPM_P2
2022/04/09 00:00:34;;;;;;;;;;;;;;;14.24;53.78;100108.75;1041131;28;626;-53
2022/04/09 00:01:25;;;;;;;;;;;;;;;14.24;54.35;100116.78;1041078;28;717;-57
2022/04/09 00:02:15;;;;;;;;;;;;;;;14.24;54.18;100106.06;1041137;28;689;-54
2022/04/09 00:03:06;;;;;;;;;;;;;;;14.24;53.85;100111.44;1041200;28;629;-55
2022/04/09 00:03:56;;;;;;;;;;;;;;;14.24;54.23;100111.44;1040772;28;675;-53
2022/04/09 00:04:47;;;;;;;;;;;;;;;14.23;54.00;100107.06;1041042;28;1910;-55
2022/04/09 00:05:37;;;;;;;;;;;;;;;14.23;54.15;100111.56;1041104;28;939;-55
2022/04/09 00:06:28;;;;;;;;;;;;;;;14.22;54.29;100116.09;1041120;28;673;-56
2022/04/09 00:07:18;;;;;;;;;;;;;;;14.23;53.76;100117.78;1041151;28;921;-56
2022/04/09 00:08:08;;;;;;;;;;;;;;;14.23;54.16;100117.78;1041103;28;665;-56
2022/04/09 00:08:59;;;;;;;;;;;;;;;14.21;53.77;100117.06;1041110;28;728;-55
2022/04/09 00:09:49;;;;;;;;;;;;;;;14.19;53.62;100124.41;1041023;28;685;-56
2022/04/09 00:10:40;;;;;;;;;;;;;;;14.21;53.92;100121.59;1041121;28;661;-57
2022/04/09 00:11:30;;;;;;;;;;;;;;;14.21;54.34;100125.13;1041239;28;667;-57
2022/04/09 00:12:20;;;;;;;;;;;;;;;14.19;53.71;100127.09;1041138;28;658;-57
2022/04/09 00:13:11;;;;;;;;;;;;;;;14.18;53.72;100125.38;1041201;28;666;-56
2022/04/09 00:14:01;;;;;;;;;;;;;;;14.17;53.73;100123.69;1041054;28;673;-55
2022/04/09 00:14:52;;;;;;;;;;;;;;;14.17;54.23;100129.06;1041147;28;682;-56
2022/04/09 00:15:43;;;;;;;;;;;;;;;14.16;53.36;100135.41;1041037;28;921;-55
2022/04/09 00:16:34;;;;;;;;;;;;;;;14.13;53.71;100127.66;1040637;28;695;-54
2022/04/09 00:17:24;;;;;;;;;;;;;;;14.14;54.38;100145.44;1040489;28;652;-55
2022/04/09 00:18:15;;;;;;;;;;;;;;;14.17;53.37;100145.13;1040605;28;641;-58
2022/04/09 00:19:06;;;;;;;;;;;;;;;14.17;53.90;100160.38;1040618;28;643;-56
2022/04/09 00:19:56;;;;;;;;;;;;;;;14.16;53.78;100154.16;1041172;28;669;-55
2022/04/09 00:20:46;;;;;;;;;;;;;;;14.18;53.70;100162.06;1041113;28;636;-55
2022/04/09 00:21:37;;;;;;;;;;;;;;;14.15;54.43;100155.13;1041081;28;713;-55
2022/04/09 00:22:27;;;;;;;;;;;;;;;14.14;54.19;100158.84;1040991;28;791;-56
2022/04/09 00:23:18;;;;;;;;;;;;;;;14.13;53.59;100149.09;1041112;28;773;-57
2022/04/09 00:24:09;;;;;;;;;;;;;;;14.12;54.09;100152.75;1040483;28;670;-56
2022/04/09 00:24:59;;;;;;;;;;;;;;;14.12;54.02;100147.41;1040985;28;1973;-57
2022/04/09 00:25:50;;;;;;;;;;;;;;;14.11;54.34;100151.06;1041061;28;689;-57
2022/04/09 00:26:40;;;;;;;;;;;;;;;14.10;53.71;100160.09;1042214;28;1719;-57
2022/04/09 00:27:30;;;;;;;;;;;;;;;14.12;54.10;100150.09;1044502;28;1685;-55
2022/04/09 00:28:21;;;;;;;;;;;;;;;14.11;53.51;100158.25;1045133;28;645;-56
2022/04/09 00:29:11;;;;;;;;;;;;;;;14.13;53.64;100150.94;1045244;28;633;-57
2022/04/09 00:30:02;;;;;;;;;;;;;;;14.13;54.04;100154.47;1045111;28;618;-55
2022/04/09 00:30:52;;;;;;;;;;;;;;;14.13;53.73;100159.81;1044694;28;667;-55
2022/04/09 00:31:43;;;;;;;;;;;;;;;14.12;53.93;100159.97;1045150;28;673;-57
2022/04/09 00:32:33;;;;;;;;;;;;;;;14.12;53.91;100152.75;1044713;28;645;-57
2022/04/09 00:33:23;;;;;;;;;;;;;;;14.12;53.62;100150.09;1045299;28;665;-55
2022/04/09 00:34:14;;;;;;;;;;;;;;;14.11;53.71;100158.25;1045297;28;630;-56
2022/04/09 00:35:05;;;;;;;;;;;;;;;14.11;53.64;100167.16;1045229;28;634;-57
2022/04/09 00:35:56;;;;;;;;;;;;;;;14.11;53.80;100168.97;1044680;28;707;-56
2022/04/09 00:36:46;;;;;;;;;;;;;;;14.12;53.53;100163.47;1045091;28;630;-56
2022/04/09 00:37:37;;;;;;;;;;;;;;;14.11;53.92;100161.78;1045136;28;610;-56
2022/04/09 00:38:29;;;;;;;;;;;;;;;14.12;54.11;100166.16;1044141;28;665;-53
2022/04/09 00:39:19;;;;;;;;;;;;;;;14.11;53.97;100175.19;1043958;28;701;-56
2022/04/09 00:40:10;;;;;;;;;;;;;;;14.10;53.18;100162.78;1045190;28;661;-57
2022/04/09 00:41:00;;;;;;;;;;;;;;;14.10;53.60;100176.16;1045158;28;673;-57
2022/04/09 00:41:51;;;;;;;;;;;;;;;14.08;54.15;100175.44;1044674;28;696;-56
2022/04/09 00:42:42;;;;;;;;;;;;;;;14.07;53.45;100170.22;1044796;28;706;-55
2022/04/09 00:43:32;;;;;;;;;;;;;;;14.06;53.97;100174.75;1045103;28;676;-56
2022/04/09 00:44:23;;;;;;;;;;;;;;;14.06;54.00;100174.75;1045975;28;701;-55
2022/04/09 00:45:13;;;;;;;;;;;;;;;14.04;53.76;100179.38;1045954;28;712;-55
2022/04/09 00:46:03;;;;;;;;;;;;;;;14.06;53.63;100188.13;1045309;28;614;-56
2022/04/09 00:46:54;;;;;;;;;;;;;;;14.05;54.19;100183.75;1045956;28;786;-57
2022/04/09 00:47:44;;;;;;;;;;;;;;;14.06;53.96;100180.09;1045990;28;737;-55
2022/04/09 00:48:35;;;;;;;;;;;;;;;14.07;53.70;100181.78;1045398;28;700;-55
2022/04/09 00:49:28;;;;;;;;;;;;;;;14.06;53.96;100180.09;1045978;28;646;-54
2022/04/09 00:50:18;;;;;;;;;;;;;;;14.03;53.30;100175.00;1045310;28;607;-56
2022/04/09 00:51:09;;;;;;;;;;;;;;;14.03;53.34;100180.38;1045380;28;685;-57
2022/04/09 00:51:59;;;;;;;;;;;;;;;14.03;53.73;100180.38;1045307;28;641;-55
2022/04/09 00:52:50;;;;;;;;;;;;;;;14.04;53.83;100187.44;1045335;28;633;-56
2022/04/09 00:53:41;;;;;;;;;;;;;;;14.03;53.69;100183.06;1045493;28;720;-56
2022/04/09 00:54:31;;;;;;;;;;;;;;;14.05;53.87;100189.13;1045358;28;688;-56
2022/04/09 00:56:12;;;;;;;;;;;;;;;14.03;53.88;100177.69;1045292;28;689;-56
2022/04/09 00:56:32;;;;;;;;;;;;;;;14.01;54.03;100187.69;1045071;28;1754;-57
2022/04/09 00:57:25;;;;;;;;;;;;;;;14.01;53.28;100185.00;1041839;28;651;-57
2022/04/09 00:58:15;;;;;;;;;;;;;;;14.01;53.99;100189.53;1041255;28;650;-57
2022/04/09 00:59:11;;;;;;;;;;;;;;;14.00;53.61;100194.03;1041318;28;607;-57
2022/04/09 01:00:03;;;;;;;;;;;;;;;14.00;53.36;100190.50;1044424;28;1545;-56
2022/04/09 01:00:53;;;;;;;;;;;;;;;13.99;53.18;100189.66;1045372;28;690;-57
2022/04/09 01:01:43;;;;;;;;;;;;;;;13.99;53.15;100186.97;1045454;28;788;-56
2022/04/09 01:02:34;;;;;;;;;;;;;;;13.99;53.79;100195.03;1045346;28;634;-56
2022/04/09 01:03:24;;;;;;;;;;;;;;;13.98;53.83;100195.16;1045321;28;712;-57
2022/04/09 01:04:15;;;;;;;;;;;;;;;13.98;53.18;100195.16;1045737;28;1145;-57
2022/04/09 01:05:05;;;;;;;;;;;;;;;13.97;53.93;100193.50;1045852;28;690;-56
2022/04/09 01:05:56;;;;;;;;;;;;;;;13.96;53.31;100200.69;1045230;28;618;-58
2022/04/09 01:06:46;;;;;;;;;;;;;;;13.97;54.07;100197.00;1045390;28;741;-57
2022/04/09 01:07:37;;;;;;;;;;;;;;;13.97;54.04;100199.69;1045919;28;626;-56
2022/04/09 01:08:27;;;;;;;;;;;;;;;13.95;53.33;100208.84;1045351;28;665;-54
2022/04/09 01:09:17;;;;;;;;;;;;;;;13.95;53.97;100200.81;1045907;28;626;-53
2022/04/09 01:10:11;;;;;;;;;;;;;;;13.97;53.56;100212.25;1044731;28;926;-55
2022/04/09 01:11:01;;;;;;;;;;;;;;;13.96;53.87;100200.69;1045794;28;777;-54
2022/04/09 01:11:51;;;;;;;;;;;;;;;13.97;53.19;100202.38;1045792;28;639;-55
2022/04/09 01:12:42;;;;;;;;;;;;;;;13.96;53.15;100211.41;1045862;28;622;-56
2022/04/09 01:13:32;;;;;;;;;;;;;;;13.95;53.29;100215.06;1045205;28;708;-56
2022/04/09 01:14:23;;;;;;;;;;;;;;;13.95;53.37;100216.88;1045171;28;647;-56
2022/04/09 01:15:13;;;;;;;;;;;;;;;13.94;53.91;100216.03;1045875;28;737;-57
2022/04/09 01:16:04;;;;;;;;;;;;;;;13.94;54.08;100225.91;1045776;28;646;-56
2022/04/09 01:16:54;;;;;;;;;;;;;;;13.94;53.44;100231.25;1045348;28;760;-54
2022/04/09 01:17:44;;;;;;;;;;;;;;;13.94;54.13;100236.63;1045198;28;641;-56
2022/04/09 01:18:35;;;;;;;;;;;;;;;13.93;54.00;100237.59;1045183;28;693;-57
2022/04/09 01:19:25;;;;;;;;;;;;;;;13.92;53.98;100231.38;1045316;28;705;-57
2022/04/09 01:20:16;;;;;;;;;;;;;;;13.89;54.04;100237.88;1045257;28;681;-57
2022/04/09 01:21:06;;;;;;;;;;;;;;;13.85;53.18;100231.06;1045888;28;650;-56
2022/04/09 01:21:56;;;;;;;;;;;;;;;13.85;53.94;100233.75;1044551;28;651;-57
2022/04/09 01:22:47;;;;;;;;;;;;;;;13.83;53.09;100227.69;1045737;28;626;-56
2022/04/09 01:23:37;;;;;;;;;;;;;;;13.83;53.24;100232.19;1045910;28;630;-55
2022/04/09 01:24:28;;;;;;;;;;;;;;;13.85;53.36;100240.94;1045807;28;705;-56
2022/04/09 01:25:18;;;;;;;;;;;;;;;13.82;53.18;100233.16;1045762;28;689;-56
2022/04/09 01:26:09;;;;;;;;;;;;;;;13.82;53.31;100233.16;1045797;28;646;-57
2022/04/09 01:26:59;;;;;;;;;;;;;;;13.82;53.28;100241.19;1041130;28;685;-57
2022/04/09 01:27:49;;;;;;;;;;;;;;;13.80;53.28;100237.81;1041668;28;605;-57
2022/04/09 01:28:40;;;;;;;;;;;;;;;13.81;54.13;100244.88;1045095;28;1770;-57
2022/04/09 01:29:30;;;;;;;;;;;;;;;13.81;53.65;100258.25;1045762;28;681;-56
2022/04/09 01:30:21;;;;;;;;;;;;;;;13.82;54.00;100262.63;1045012;28;1731;-56
2022/04/09 01:31:11;;;;;;;;;;;;;;;13.83;53.82;100259.81;1045227;28;693;-56
2022/04/09 01:32:02;;;;;;;;;;;;;;;13.80;54.00;100249.38;1045776;28;630;-55
2022/04/09 01:32:52;;;;;;;;;;;;;;;13.80;53.91;100254.72;1045281;28;692;-55
2022/04/09 01:33:42;;;;;;;;;;;;;;;13.80;54.20;100248.53;1045803;28;638;-55
2022/04/09 01:34:33;;;;;;;;;;;;;;;13.81;53.75;100256.44;1045288;28;632;-56
2022/04/09 01:35:23;;;;;;;;;;;;;;;13.82;53.76;100251.91;1045748;28;657;-54
2022/04/09 01:36:14;;;;;;;;;;;;;;;13.80;53.55;100254.72;1045767;28;689;-56
2022/04/09 01:37:05;;;;;;;;;;;;;;;13.81;53.84;100258.25;1044589;28;705;-57
2022/04/09 01:37:55;;;;;;;;;;;;;;;13.80;53.13;100259.22;1045790;28;682;-57
2022/04/09 01:38:46;;;;;;;;;;;;;;;13.79;53.23;100261.06;1049621;28;633;-57
2022/04/09 01:39:36;;;;;;;;;;;;;;;13.81;53.69;100253.75;1048094;28;728;-56
2022/04/09 01:40:27;;;;;;;;;;;;;;;13.80;53.76;100257.41;1045451;28;779;-56
2022/04/09 01:41:17;;;;;;;;;;;;;;;13.80;53.27;100249.38;1045772;28;681;-56
2022/04/09 01:42:10;;;;;;;;;;;;;;;13.81;53.79;100255.56;1045699;28;622;-54
2022/04/09 01:43:00;;;;;;;;;;;;;;;13.79;53.50;100253.03;1044683;28;748;-56
2022/04/09 01:43:51;;;;;;;;;;;;;;;13.81;53.28;100255.56;1045687;28;659;-56
2022/04/09 01:44:41;;;;;;;;;;;;;;;13.80;53.93;100256.56;1045166;28;1886;-56
2022/04/09 01:45:31;;;;;;;;;;;;;;;13.82;53.31;100257.28;1045208;28;653;-56
2022/04/09 01:46:22;;;;;;;;;;;;;;;13.81;54.10;100261.78;1045724;28;736;-56
2022/04/09 01:47:12;;;;;;;;;;;;;;;13.82;53.99;100262.63;1045681;28;728;-56
2022/04/09 01:48:03;;;;;;;;;;;;;;;13.82;53.70;100267.97;1045714;28;907;-55
2022/04/09 01:48:53;;;;;;;;;;;;;;;13.81;53.53;100267.13;1045701;28;662;-55
2022/04/09 01:49:43;;;;;;;;;;;;;;;13.81;53.68;100277.00;1045191;28;631;-56
2022/04/09 01:50:34;;;;;;;;;;;;;;;13.79;54.00;100276.31;1044795;28;1263;-53
2022/04/09 01:51:24;;;;;;;;;;;;;;;13.79;53.23;100270.97;1041620;28;739;-55
2022/04/09 01:52:15;;;;;;;;;;;;;;;13.79;54.01;100279.00;1041563;28;662;-56
2022/04/09 01:53:05;;;;;;;;;;;;;;;13.79;53.93;100279.81;1040786;28;698;-54
2022/04/09 01:53:55;;;;;;;;;;;;;;;13.79;53.95;100285.16;1041488;28;686;-55
2022/04/09 01:54:46;;;;;;;;;;;;;;;13.79;53.34;100279.81;1040958;28;623;-55
2022/04/09 01:55:37;;;;;;;;;;;;;;;13.79;53.21;100287.03;1041078;28;634;-55
2022/04/09 01:56:28;;;;;;;;;;;;;;;13.80;53.26;100286.88;1042221;28;1675;-55
2022/04/09 01:57:18;;;;;;;;;;;;;;;13.80;53.64;100286.88;1045088;28;712;-56
2022/04/09 01:58:08;;;;;;;;;;;;;;;13.79;53.62;100290.53;1045580;28;685;-57
2022/04/09 01:58:59;;;;;;;;;;;;;;;13.79;53.71;100292.38;1045074;28;685;-58
2022/04/09 01:59:49;;;;;;;;;;;;;;;13.77;53.92;100280.94;1044732;28;678;-58
2022/04/09 02:00:40;;;;;;;;;;;;;;;13.75;54.16;100286.44;1049411;28;662;-58
2022/04/09 02:01:30;;;;;;;;;;;;;;;13.76;53.63;100296.16;1048302;28;642;-57
2022/04/09 02:02:21;;;;;;;;;;;;;;;13.75;53.65;100288.28;1043785;28;686;-58
2022/04/09 02:03:11;;;;;;;;;;;;;;;13.75;53.52;100296.31;1045163;28;653;-57
2022/04/09 02:04:02;;;;;;;;;;;;;;;13.74;53.56;100295.47;1045582;28;611;-58
2022/04/09 02:04:53;;;;;;;;;;;;;;;13.74;53.40;100292.78;1045334;28;1977;-58
2022/04/09 02:05:43;;;;;;;;;;;;;;;13.75;54.10;100301.66;1046195;28;656;-57
2022/04/09 02:06:34;;;;;;;;;;;;;;;13.74;54.09;100297.28;1044322;28;752;-58
2022/04/09 02:07:27;;;;;;;;;;;;;;;13.73;53.42;100307.16;1045056;28;759;-57
2022/04/09 02:08:17;;;;;;;;;;;;;;;13.73;53.69;100301.78;1045524;28;625;-56
2022/04/09 02:09:11;;;;;;;;;;;;;;;13.73;54.04;100303.63;1045063;28;660;-56
2022/04/09 02:10:02;;;;;;;;;;;;;;;13.75;53.89;100304.34;1044462;28;650;-55
2022/04/09 02:10:54;;;;;;;;;;;;;;;13.72;53.85;100309.94;1045630;28;653;-56
2022/04/09 02:11:44;;;;;;;;;;;;;;;13.72;53.35;100310.81;1045661;28;719;-57
2022/04/09 02:12:34;;;;;;;;;;;;;;;13.71;54.27;100302.91;1046185;28;667;-57
2022/04/09 02:13:25;;;;;;;;;;;;;;;13.69;54.03;100295.00;1046244;28;606;-56
2022/04/09 02:14:16;;;;;;;;;;;;;;;13.70;53.35;100303.88;1045809;28;630;-56
2022/04/09 02:15:07;;;;;;;;;;;;;;;13.70;54.05;100303.88;1045705;28;629;-57
2022/04/09 02:15:58;;;;;;;;;;;;;;;13.68;53.67;100303.16;1045600;28;621;-57
2022/04/09 02:16:48;;;;;;;;;;;;;;;13.69;54.33;100304.84;1041495;28;626;-56
2022/04/09 02:17:39;;;;;;;;;;;;;;;13.69;53.42;100295.00;1040938;28;709;-55
2022/04/09 02:18:29;;;;;;;;;;;;;;;13.68;53.86;100312.03;1040905;28;781;-55
2022/04/09 02:19:19;;;;;;;;;;;;;;;13.69;53.80;100303.03;1040854;28;1023;-55
2022/04/09 02:20:10;;;;;;;;;;;;;;;13.69;54.18;100303.03;1041003;28;633;-57
2022/04/09 02:21:00;;;;;;;;;;;;;;;13.69;53.45;100310.22;1040884;28;666;-54
2022/04/09 02:21:51;;;;;;;;;;;;;;;13.67;54.07;100301.47;1040912;28;638;-57
2022/04/09 02:22:41;;;;;;;;;;;;;;;13.67;53.38;100312.16;1040945;28;587;-56
2022/04/09 02:23:32;;;;;;;;;;;;;;;13.67;53.31;100307.66;1040872;28;701;-57
2022/04/09 02:24:22;;;;;;;;;;;;;;;13.63;54.30;100314.25;1041022;28;681;-56
2022/04/09 02:25:12;;;;;;;;;;;;;;;13.66;53.82;100310.47;1040909;28;693;-56
2022/04/09 02:26:03;;;;;;;;;;;;;;;13.65;53.60;100308.78;1040839;28;700;-57
2022/04/09 02:26:53;;;;;;;;;;;;;;;13.64;53.69;100312.44;1041026;28;622;-56
2022/04/09 02:27:44;;;;;;;;;;;;;;;13.62;53.70;100309.88;1040901;28;666;-57
2022/04/09 02:28:34;;;;;;;;;;;;;;;13.61;53.56;100310.88;1040899;28;670;-57
2022/04/09 02:29:25;;;;;;;;;;;;;;;13.61;54.08;100313.56;1040776;28;684;-58
2022/04/09 02:30:15;;;;;;;;;;;;;;;13.61;53.55;100313.56;1041002;28;654;-59
2022/04/09 02:31:06;;;;;;;;;;;;;;;13.61;54.08;100316.25;1040831;28;619;-58
2022/04/09 02:31:56;;;;;;;;;;;;;;;13.62;54.25;100323.28;1040930;28;687;-57
2022/04/09 02:32:48;;;;;;;;;;;;;;;13.62;53.45;100325.94;1040811;28;673;-58
2022/04/09 02:33:39;;;;;;;;;;;;;;;13.63;53.64;100329.47;1036984;28;576;-57
2022/04/09 02:34:29;;;;;;;;;;;;;;;13.62;53.49;100325.94;1037057;28;712;-57
2022/04/09 02:35:20;;;;;;;;;;;;;;;13.61;54.14;100328.78;1040749;28;792;-57
2022/04/09 02:36:12;;;;;;;;;;;;;;;13.59;53.59;100328.91;1043403;28;1680;-57
2022/04/09 02:37:02;;;;;;;;;;;;;;;13.60;54.01;100332.44;1044994;28;650;-57
2022/04/09 02:37:53;;;;;;;;;;;;;;;13.60;54.29;100332.44;1044660;28;1690;-57
2022/04/09 02:38:43;;;;;;;;;;;;;;;13.58;54.10;100329.88;1044977;28;630;-55
2022/04/09 02:39:33;;;;;;;;;;;;;;;13.58;53.43;100337.06;1044161;28;646;-57
2022/04/09 02:40:24;;;;;;;;;;;;;;;13.60;54.20;100335.13;1045522;28;643;-57
2022/04/09 02:41:14;;;;;;;;;;;;;;;13.58;54.18;100332.56;1045569;28;787;-57
2022/04/09 02:42:05;;;;;;;;;;;;;;;13.59;53.38;100338.78;1045455;28;680;-56
2022/04/09 02:42:56;;;;;;;;;;;;;;;13.58;54.44;100339.75;1045563;28;700;-55
2022/04/09 02:43:47;;;;;;;;;;;;;;;13.59;53.85;100344.13;1044172;28;1021;-55
2022/04/09 02:44:37;;;;;;;;;;;;;;;13.58;53.44;100342.44;1045365;28;1902;-58
2022/04/09 02:45:28;;;;;;;;;;;;;;;13.56;53.34;100334.53;1045506;28;692;-56
2022/04/09 02:46:18;;;;;;;;;;;;;;;13.58;53.72;100342.44;1049306;28;633;-56
2022/04/09 02:47:09;;;;;;;;;;;;;;;13.59;54.17;100344.13;1049467;28;637;-56
2022/04/09 02:47:59;;;;;;;;;;;;;;;13.58;54.05;100339.75;1045541;28;623;-57
2022/04/09 02:48:49;;;;;;;;;;;;;;;13.58;54.10;100339.75;1045488;28;630;-57
2022/04/09 02:49:40;;;;;;;;;;;;;;;13.58;53.41;100345.09;1045471;28;606;-56
2022/04/09 02:50:30;;;;;;;;;;;;;;;13.54;54.34;100342.69;1048979;28;1266;-57
2022/04/09 02:51:21;;;;;;;;;;;;;;;13.53;54.17;100340.97;1045192;28;669;-57
2022/04/09 02:52:11;;;;;;;;;;;;;;;13.52;54.31;100341.97;1041576;28;629;-57
2022/04/09 02:53:02;;;;;;;;;;;;;;;13.52;53.92;100341.13;1041331;28;610;-57
2022/04/09 02:53:52;;;;;;;;;;;;;;;13.50;54.06;100338.56;1041289;28;636;-57
2022/04/09 02:54:42;;;;;;;;;;;;;;;13.51;53.92;100350.13;1041294;28;656;-57
2022/04/09 02:55:33;;;;;;;;;;;;;;;13.49;53.67;100347.56;1041476;28;1676;-57
2022/04/09 02:56:23;;;;;;;;;;;;;;;13.52;53.40;100344.63;1041346;28;732;-55
2022/04/09 02:57:14;;;;;;;;;;;;;;;13.50;53.50;100343.91;1040279;28;670;-57
2022/04/09 02:58:04;;;;;;;;;;;;;;;13.50;53.69;100345.75;1039798;28;630;-57
2022/04/09 02:58:54;;;;;;;;;;;;;;;13.50;53.90;100346.59;1040356;28;742;-56
2022/04/09 02:59:45;;;;;;;;;;;;;;;13.49;53.73;100352.06;1040208;28;626;-57
2022/04/09 03:00:35;;;;;;;;;;;;;;;13.49;53.78;100347.56;1040284;28;697;-57
2022/04/09 03:01:27;;;;;;;;;;;;;;;13.50;53.54;100346.59;1040217;28;615;-57
2022/04/09 03:02:17;;;;;;;;;;;;;;;13.49;53.39;100354.75;1041425;28;669;-58
2022/04/09 03:03:08;;;;;;;;;;;;;;;13.48;54.43;100361.94;1040280;28;623;-58
2022/04/09 03:03:58;;;;;;;;;;;;;;;13.49;54.32;100363.63;1040682;28;1669;-57
2022/04/09 03:04:49;;;;;;;;;;;;;;;13.52;54.12;100368.72;1044795;28;1985;-58
2022/04/09 03:05:39;;;;;;;;;;;;;;;13.49;53.57;100363.63;1045360;28;689;-57
2022/04/09 03:06:30;;;;;;;;;;;;;;;13.49;54.28;100358.28;1044800;28;866;-58
2022/04/09 03:07:21;;;;;;;;;;;;;;;13.49;53.84;100358.28;1045459;28;665;-57
2022/04/09 03:08:12;;;;;;;;;;;;;;;13.50;53.89;100361.81;1044266;28;634;-58
2022/04/09 03:09:02;;;;;;;;;;;;;;;13.49;54.44;100371.66;1045374;28;637;-57
2022/04/09 03:09:53;;;;;;;;;;;;;;;13.48;53.69;100369.13;1045397;28;689;-57
2022/04/09 03:10:43;;;;;;;;;;;;;;;13.48;53.58;100372.63;1045462;28;704;-58
2022/04/09 03:11:34;;;;;;;;;;;;;;;13.48;53.80;100369.97;1045437;28;638;-58
2022/04/09 03:12:24;;;;;;;;;;;;;;;13.47;53.90;100365.59;1044379;28;700;-57
2022/04/09 03:13:14;;;;;;;;;;;;;;;13.46;54.09;100373.75;1044854;28;716;-55
2022/04/09 03:14:05;;;;;;;;;;;;;;;13.47;54.04;100378.13;1045522;28;650;-57
2022/04/09 03:14:55;;;;;;;;;;;;;;;13.46;53.44;100371.91;1045401;28;663;-56
2022/04/09 03:15:46;;;;;;;;;;;;;;;13.46;53.61;100379.94;1040837;28;1623;-56
2022/04/09 03:16:36;;;;;;;;;;;;;;;13.46;53.45;100379.94;1040749;28;649;-56
2022/04/09 03:17:26;;;;;;;;;;;;;;;13.45;54.33;100385.44;1040786;28;709;-57
2022/04/09 03:18:17;;;;;;;;;;;;;;;13.46;53.96;100379.94;1040675;28;667;-57
2022/04/09 03:19:07;;;;;;;;;;;;;;;13.46;53.41;100379.94;1040879;28;677;-56
2022/04/09 03:19:58;;;;;;;;;;;;;;;13.46;53.47;100379.94;1040771;28;785;-57
2022/04/09 03:20:48;;;;;;;;;;;;;;;13.48;54.05;100388.69;1041857;28;756;-57
2022/04/09 03:21:39;;;;;;;;;;;;;;;13.46;53.33;100382.63;1040538;28;655;-56
2022/04/09 03:22:30;;;;;;;;;;;;;;;13.46;54.08;100379.94;1040792;28;657;-56
2022/04/09 03:23:20;;;;;;;;;;;;;;;13.46;53.92;100379.09;1040796;28;717;-56
2022/04/09 03:24:11;;;;;;;;;;;;;;;13.46;54.39;100379.09;1044771;28;724;-57
2022/04/09 03:25:01;;;;;;;;;;;;;;;13.43;54.07;100379.38;1045285;28;1890;-56
2022/04/09 03:25:52;;;;;;;;;;;;;;;13.42;53.91;100386.56;1044967;28;665;-56
2022/04/09 03:26:42;;;;;;;;;;;;;;;13.43;53.89;100393.63;1044604;28;713;-57
2022/04/09 03:27:33;;;;;;;;;;;;;;;13.44;53.63;100397.97;1044765;28;669;-56
2022/04/09 03:28:23;;;;;;;;;;;;;;;13.43;54.11;100392.75;1044257;28;728;-57
2022/04/09 03:29:14;;;;;;;;;;;;;;;13.43;54.29;100401.66;1044027;28;733;-56
2022/04/09 03:30:04;;;;;;;;;;;;;;;13.43;53.67;100411.50;1044215;28;697;-56
2022/04/09 03:30:55;;;;;;;;;;;;;;;13.41;54.35;100422.34;1044812;28;694;-56
2022/04/09 03:31:45;;;;;;;;;;;;;;;13.41;53.64;100424.16;1045248;28;716;-57
2022/04/09 03:32:36;;;;;;;;;;;;;;;13.42;53.62;100429.38;1045007;28;702;-53
2022/04/09 03:33:26;;;;;;;;;;;;;;;13.39;54.10;100426.09;1045043;28;720;-56
2022/04/09 03:34:17;;;;;;;;;;;;;;;13.37;53.77;100418.22;1044802;28;610;-56
2022/04/09 03:35:07;;;;;;;;;;;;;;;13.35;53.44;100428.19;1044075;28;1688;-55
2022/04/09 03:35:57;;;;;;;;;;;;;;;13.35;53.55;100422.84;1045918;28;692;-56
2022/04/09 03:36:48;;;;;;;;;;;;;;;13.33;53.47;100414.06;1045862;28;869;-53
2022/04/09 03:37:38;;;;;;;;;;;;;;;13.33;53.56;100416.75;1046000;28;633;-56
2022/04/09 03:38:29;;;;;;;;;;;;;;;13.31;53.88;100408.00;1045937;28;649;-56
2022/04/09 03:39:19;;;;;;;;;;;;;;;13.32;53.82;100409.69;1044686;28;1735;-53
2022/04/09 03:40:10;;;;;;;;;;;;;;;13.32;54.37;100415.06;1045840;28;676;-56
2022/04/09 03:41:00;;;;;;;;;;;;;;;13.31;53.56;100408.00;1044738;28;744;-56
2022/04/09 03:41:51;;;;;;;;;;;;;;;13.32;54.42;100403.50;1044762;28;615;-55
2022/04/09 03:42:42;;;;;;;;;;;;;;;13.31;54.52;100412.50;1045317;28;645;-56
2022/04/09 03:43:32;;;;;;;;;;;;;;;13.33;54.41;100403.38;1044851;28;649;-56
2022/04/09 03:44:23;;;;;;;;;;;;;;;13.32;54.06;100404.34;1045937;28;692;-55
2022/04/09 03:45:13;;;;;;;;;;;;;;;13.33;54.14;100410.56;1045943;28;711;-56
2022/04/09 03:46:03;;;;;;;;;;;;;;;13.33;53.55;100418.59;1045888;28;689;-56
2022/04/09 03:46:54;;;;;;;;;;;;;;;13.33;53.85;100410.56;1045940;28;696;-57
2022/04/09 03:47:44;;;;;;;;;;;;;;;13.33;54.17;100415.91;1045815;28;654;-56
2022/04/09 03:48:35;;;;;;;;;;;;;;;13.30;54.01;100427.72;1045795;28;659;-55
2022/04/09 03:49:25;;;;;;;;;;;;;;;13.30;54.01;100430.38;1044686;28;694;-56
2022/04/09 03:50:17;;;;;;;;;;;;;;;13.29;54.47;100423.34;1045843;28;685;-57
2022/04/09 03:51:07;;;;;;;;;;;;;;;13.27;54.11;100433.31;1044696;28;712;-57
2022/04/09 03:51:57;;;;;;;;;;;;;;;13.30;53.85;100426.84;1044740;28;713;-57
2022/04/09 03:52:51;;;;;;;;;;;;;;;13.30;54.33;100417.00;1044575;28;570;-58
2022/04/09 03:53:41;;;;;;;;;;;;;;;13.30;54.00;100417.00;1044716;28;732;-56
2022/04/09 03:54:34;;;;;;;;;;;;;;;13.30;54.34;100416.16;1044561;28;687;-57
2022/04/09 03:55:25;;;;;;;;;;;;;;;13.30;54.31;100417.00;1040758;28;701;-57
2022/04/09 03:56:15;;;;;;;;;;;;;;;13.32;54.38;100425.75;1041261;28;688;-56
2022/04/09 03:57:06;;;;;;;;;;;;;;;13.26;54.35;100420.91;1040480;28;641;-56
2022/04/09 03:57:56;;;;;;;;;;;;;;;13.24;54.19;100422.88;1040580;28;638;-57
2022/04/09 03:58:48;;;;;;;;;;;;;;;13.25;53.84;100419.22;1040622;28;630;-55
2022/04/09 03:59:38;;;;;;;;;;;;;;;13.27;53.44;100417.25;1041155;28;728;-56
2022/04/09 04:00:29;;;;;;;;;;;;;;;13.32;54.08;100417.72;1040623;28;676;-57
2022/04/09 04:01:24;;;;;;;;;;;;;;;13.34;54.09;100414.94;1040678;28;701;-57
2022/04/09 04:02:14;;;;;;;;;;;;;;;13.39;53.25;100421.59;1041228;28;636;-57
2022/04/09 04:03:07;;;;;;;;;;;;;;;13.48;53.79;100415.47;1040548;28;697;-57
2022/04/09 04:03:57;;;;;;;;;;;;;;;13.60;53.22;100427.00;1041115;28;665;-57
2022/04/09 04:04:48;;;;;;;;;;;;;;;13.71;53.32;100421.56;1040441;28;1975;-54
2022/04/09 04:05:38;;;;;;;;;;;;;;;13.82;52.30;100420.66;1040648;28;649;-55
2022/04/09 04:06:29;;;;;;;;;;;;;;;13.95;52.72;100429.34;1040612;28;652;-56
2022/04/09 04:07:23;;;;;;;;;;;;;;;14.06;52.12;100431.94;1036719;28;744;-55
2022/04/09 04:08:13;;;;;;;;;;;;;;;14.18;52.45;100433.56;1036791;28;575;-56
2022/04/09 04:09:04;;;;;;;;;;;;;;;14.30;51.51;100429.00;1040654;28;641;-56
2022/04/09 04:09:55;;;;;;;;;;;;;;;14.44;51.23;100431.34;1041097;28;1165;-56
2022/04/09 04:10:45;;;;;;;;;;;;;;;14.55;51.08;100433.91;1036820;28;615;-57
2022/04/09 04:11:36;;;;;;;;;;;;;;;14.64;50.92;100440.31;1036718;28;642;-56
2022/04/09 04:12:28;;;;;;;;;;;;;;;14.75;50.46;100442.03;1040773;28;740;-57
2022/04/09 04:13:18;;;;;;;;;;;;;;;14.87;50.96;100439.09;1040585;28;662;-56
2022/04/09 04:14:09;;;;;;;;;;;;;;;14.98;50.47;100438.16;1040590;28;853;-57
2022/04/09 04:14:59;;;;;;;;;;;;;;;15.19;50.10;100438.91;1036712;28;685;-54
2022/04/09 04:15:51;;;;;;;;;;;;;;;15.27;50.10;100440.88;1036741;28;637;-56
2022/04/09 04:16:41;;;;;;;;;;;;;;;15.42;49.64;100444.84;1041402;28;665;-54
2022/04/09 04:17:32;;;;;;;;;;;;;;;15.52;49.40;100448.41;1041283;28;564;-56
2022/04/09 04:18:22;;;;;;;;;;;;;;;15.59;48.91;100451.38;1041519;28;707;-56
2022/04/09 04:19:13;;;;;;;;;;;;;;;15.70;49.04;100450.41;1041293;28;724;-56
2022/04/09 04:20:03;;;;;;;;;;;;;;;15.76;49.07;100447.16;1041362;28;653;-56
2022/04/09 04:20:53;;;;;;;;;;;;;;;15.76;49.07;100442.63;1041516;28;712;-56
2022/04/09 04:21:44;;;;;;;;;;;;;;;15.84;48.81;100458.88;1041252;28;678;-58
2022/04/09 04:22:34;;;;;;;;;;;;;;;16.00;48.44;100457.44;1041450;28;739;-57
2022/04/09 04:23:25;;;;;;;;;;;;;;;16.00;48.31;100466.34;1041282;28;651;-57
2022/04/09 04:24:15;;;;;;;;;;;;;;;16.09;48.44;100465.50;1041380;28;677;-56
2022/04/09 04:25:05;;;;;;;;;;;;;;;16.15;48.22;100470.28;1042931;28;1890;-56
2022/04/09 04:25:56;;;;;;;;;;;;;;;16.19;48.17;100466.31;1046565;28;871;-56
2022/04/09 04:26:46;;;;;;;;;;;;;;;16.25;47.78;100481.03;1046547;28;689;-56